John Murtha Johnstown-Cambria County Airport

Airport
ICAO code: 
KJST
Summary
ICAO Region: 
NAM
Territory: 
Location: 
Johnstown, Pennsylvania,
Coordinates: 
Aerial View: 
40° 18' 58" N, 78° 50' 2" W
Airport WX: 
Cumulonimbus
Metar
Observation
KJST 020854Z AUTO 25017G24KT 10SM OVC013 08/06 A2980 RMK AO2 PK WND 25028/0836 SLP099 60001 T00830056 58007
Station
Johnstown, Johnstown-Cambria County Airport
Date/Time
2021-12-02 08:54:00
Wind direction
250°
Wind speed
17 kts
Lowest cloud amount
overcast
Temperature
8.3°C
Dew point
5.6°C
Humidity
83%
Weather condition
n/a

Description

John Murtha Johnstown–Cambria County Airport is a joint civil-military (ANG) public use airport located 6 km northeast of the central business district of Johnstown, a city in Cambria County, Pennsylvania.

Climatology

Humid Continental climate (Köppen climate classification Dfb) - Variable weather patterns and a large seasonal temperature variance. Summers are often warm and humid with frequent thunderstorms and winters can be very cold with frequent snowfall and persistent snow cover.

Runways

Designator Length Width Surface Rops
10/28 1128 30 ASP No/No
5/23 1337 30 ASP Yes/Yes
15/33 2135 46 ASP Yes/Yes
Airport map: 
Aerial View: 

SKYbrary Partners:

Safety knowledge contributed by: